sensor_id;sensor_type;location;lat;lon;timestamp;P1;durP1;ratioP1;P2;durP2;ratioP2
20870;SDS011;10595;51.218;3.452;2023-06-19T00:02:01;7.90;;;5.13;;
20870;SDS011;10595;51.218;3.452;2023-06-19T00:04:27;6.17;;;5.00;;
20870;SDS011;10595;51.218;3.452;2023-06-19T00:06:53;7.27;;;5.20;;
20870;SDS011;10595;51.218;3.452;2023-06-19T00:09:20;6.27;;;4.80;;
20870;SDS011;10595;51.218;3.452;2023-06-19T00:11:46;8.20;;;6.27;;
20870;SDS011;10595;51.218;3.452;2023-06-19T00:14:12;13.23;;;6.57;;
20870;SDS011;10595;51.218;3.452;2023-06-19T00:16:38;9.27;;;6.63;;
20870;SDS011;10595;51.218;3.452;2023-06-19T00:19:05;7.77;;;6.77;;
20870;SDS011;10595;51.218;3.452;2023-06-19T00:21:31;12.73;;;8.20;;
20870;SDS011;10595;51.218;3.452;2023-06-19T00:23:57;12.77;;;8.63;;
20870;SDS011;10595;51.218;3.452;2023-06-19T00:26:23;14.60;;;9.50;;
20870;SDS011;10595;51.218;3.452;2023-06-19T00:28:50;15.90;;;10.00;;
20870;SDS011;10595;51.218;3.452;2023-06-19T00:31:16;17.77;;;11.73;;
20870;SDS011;10595;51.218;3.452;2023-06-19T00:33:43;20.43;;;13.27;;
20870;SDS011;10595;51.218;3.452;2023-06-19T00:36:10;22.20;;;14.37;;
20870;SDS011;10595;51.218;3.452;2023-06-19T00:38:37;30.70;;;18.03;;
20870;SDS011;10595;51.218;3.452;2023-06-19T00:41:04;34.97;;;22.00;;
20870;SDS011;10595;51.218;3.452;2023-06-19T00:43:30;33.63;;;22.47;;
20870;SDS011;10595;51.218;3.452;2023-06-19T00:45:59;38.50;;;23.53;;
20870;SDS011;10595;51.218;3.452;2023-06-19T00:48:26;32.03;;;20.07;;
20870;SDS011;10595;51.218;3.452;2023-06-19T00:50:53;28.57;;;19.40;;
20870;SDS011;10595;51.218;3.452;2023-06-19T00:53:19;34.00;;;19.80;;
20870;SDS011;10595;51.218;3.452;2023-06-19T00:55:46;31.70;;;20.83;;
20870;SDS011;10595;51.218;3.452;2023-06-19T00:58:13;28.37;;;19.27;;
20870;SDS011;10595;51.218;3.452;2023-06-19T01:00:39;28.80;;;19.33;;
20870;SDS011;10595;51.218;3.452;2023-06-19T01:03:05;27.03;;;18.43;;
20870;SDS011;10595;51.218;3.452;2023-06-19T01:05:31;28.77;;;19.37;;
20870;SDS011;10595;51.218;3.452;2023-06-19T01:11:00;25.93;;;18.20;;
20870;SDS011;10595;51.218;3.452;2023-06-19T01:16:03;23.90;;;15.60;;
20870;SDS011;10595;51.218;3.452;2023-06-19T01:18:32;23.97;;;14.63;;
20870;SDS011;10595;51.218;3.452;2023-06-19T01:21:11;21.00;;;13.87;;
20870;SDS011;10595;51.218;3.452;2023-06-19T01:23:37;17.03;;;11.67;;
20870;SDS011;10595;51.218;3.452;2023-06-19T01:26:03;16.10;;;10.50;;
20870;SDS011;10595;51.218;3.452;2023-06-19T01:28:29;14.20;;;10.20;;
20870;SDS011;10595;51.218;3.452;2023-06-19T01:30:55;17.80;;;11.27;;
20870;SDS011;10595;51.218;3.452;2023-06-19T01:33:25;16.13;;;9.77;;
20870;SDS011;10595;51.218;3.452;2023-06-19T01:35:53;15.17;;;8.73;;
20870;SDS011;10595;51.218;3.452;2023-06-19T01:38:21;15.57;;;9.17;;
20870;SDS011;10595;51.218;3.452;2023-06-19T01:40:50;15.57;;;9.80;;
20870;SDS011;10595;51.218;3.452;2023-06-19T01:43:17;14.87;;;10.10;;
20870;SDS011;10595;51.218;3.452;2023-06-19T01:45:44;12.87;;;9.33;;
20870;SDS011;10595;51.218;3.452;2023-06-19T01:48:10;13.43;;;8.80;;
20870;SDS011;10595;51.218;3.452;2023-06-19T01:50:36;8.10;;;6.20;;
20870;SDS011;10595;51.218;3.452;2023-06-19T01:53:02;7.33;;;4.57;;
20870;SDS011;10595;51.218;3.452;2023-06-19T01:55:28;6.80;;;4.53;;
20870;SDS011;10595;51.218;3.452;2023-06-19T01:57:54;4.83;;;3.97;;
20870;SDS011;10595;51.218;3.452;2023-06-19T02:00:20;7.90;;;4.30;;
20870;SDS011;10595;51.218;3.452;2023-06-19T02:02:47;5.30;;;4.07;;
20870;SDS011;10595;51.218;3.452;2023-06-19T02:05:13;4.40;;;3.60;;
20870;SDS011;10595;51.218;3.452;2023-06-19T02:07:39;4.23;;;3.73;;
20870;SDS011;10595;51.218;3.452;2023-06-19T02:10:05;7.90;;;3.63;;
20870;SDS011;10595;51.218;3.452;2023-06-19T02:12:32;5.63;;;4.10;;
20870;SDS011;10595;51.218;3.452;2023-06-19T02:14:59;7.07;;;5.00;;
20870;SDS011;10595;51.218;3.452;2023-06-19T02:17:25;7.93;;;5.60;;
20870;SDS011;10595;51.218;3.452;2023-06-19T02:19:51;8.97;;;6.50;;
20870;SDS011;10595;51.218;3.452;2023-06-19T02:22:17;9.47;;;6.67;;
20870;SDS011;10595;51.218;3.452;2023-06-19T02:24:43;9.00;;;6.70;;
20870;SDS011;10595;51.218;3.452;2023-06-19T02:27:10;9.33;;;6.93;;
20870;SDS011;10595;51.218;3.452;2023-06-19T02:29:36;12.53;;;7.50;;
20870;SDS011;10595;51.218;3.452;2023-06-19T02:32:02;13.37;;;7.20;;
20870;SDS011;10595;51.218;3.452;2023-06-19T02:34:28;12.70;;;9.07;;
20870;SDS011;10595;51.218;3.452;2023-06-19T02:36:54;12.73;;;9.03;;
20870;SDS011;10595;51.218;3.452;2023-06-19T02:39:20;14.10;;;9.73;;
20870;SDS011;10595;51.218;3.452;2023-06-19T02:41:46;14.67;;;9.70;;
20870;SDS011;10595;51.218;3.452;2023-06-19T02:44:12;12.27;;;10.07;;
20870;SDS011;10595;51.218;3.452;2023-06-19T02:46:39;16.50;;;9.60;;
20870;SDS011;10595;51.218;3.452;2023-06-19T02:49:05;13.23;;;9.73;;
20870;SDS011;10595;51.218;3.452;2023-06-19T02:51:31;16.53;;;10.77;;
20870;SDS011;10595;51.218;3.452;2023-06-19T02:53:57;15.40;;;10.53;;
20870;SDS011;10595;51.218;3.452;2023-06-19T02:56:24;16.80;;;11.27;;
20870;SDS011;10595;51.218;3.452;2023-06-19T02:58:50;17.40;;;11.90;;
20870;SDS011;10595;51.218;3.452;2023-06-19T03:01:17;20.43;;;13.40;;
20870;SDS011;10595;51.218;3.452;2023-06-19T03:03:43;21.00;;;14.67;;
20870;SDS011;10595;51.218;3.452;2023-06-19T03:06:11;20.23;;;13.70;;
20870;SDS011;10595;51.218;3.452;2023-06-19T03:08:38;19.67;;;13.87;;
20870;SDS011;10595;51.218;3.452;2023-06-19T03:11:04;23.67;;;14.70;;
20870;SDS011;10595;51.218;3.452;2023-06-19T03:13:43;22.57;;;15.33;;
20870;SDS011;10595;51.218;3.452;2023-06-19T03:16:09;23.37;;;15.73;;
20870;SDS011;10595;51.218;3.452;2023-06-19T03:18:35;23.23;;;15.27;;
20870;SDS011;10595;51.218;3.452;2023-06-19T03:21:01;22.50;;;15.30;;
20870;SDS011;10595;51.218;3.452;2023-06-19T03:23:27;21.13;;;15.20;;
20870;SDS011;10595;51.218;3.452;2023-06-19T03:25:53;24.33;;;17.10;;
20870;SDS011;10595;51.218;3.452;2023-06-19T03:28:19;26.10;;;17.83;;
20870;SDS011;10595;51.218;3.452;2023-06-19T03:30:46;30.10;;;19.93;;
20870;SDS011;10595;51.218;3.452;2023-06-19T03:33:12;28.77;;;19.70;;
20870;SDS011;10595;51.218;3.452;2023-06-19T03:35:38;29.80;;;20.47;;
20870;SDS011;10595;51.218;3.452;2023-06-19T03:38:04;33.87;;;20.70;;
20870;SDS011;10595;51.218;3.452;2023-06-19T03:40:30;33.13;;;22.67;;
20870;SDS011;10595;51.218;3.452;2023-06-19T03:42:56;32.53;;;22.00;;
20870;SDS011;10595;51.218;3.452;2023-06-19T03:45:22;31.67;;;20.90;;
20870;SDS011;10595;51.218;3.452;2023-06-19T03:47:48;35.10;;;22.77;;
20870;SDS011;10595;51.218;3.452;2023-06-19T03:50:14;36.20;;;23.47;;
20870;SDS011;10595;51.218;3.452;2023-06-19T03:52:40;37.80;;;24.97;;
20870;SDS011;10595;51.218;3.452;2023-06-19T03:55:06;38.23;;;25.07;;
20870;SDS011;10595;51.218;3.452;2023-06-19T03:57:32;36.83;;;24.80;;
20870;SDS011;10595;51.218;3.452;2023-06-19T03:59:58;39.40;;;25.10;;
20870;SDS011;10595;51.218;3.452;2023-06-19T04:02:24;38.43;;;24.67;;
20870;SDS011;10595;51.218;3.452;2023-06-19T04:04:51;37.83;;;25.63;;
20870;SDS011;10595;51.218;3.452;2023-06-19T04:07:17;37.80;;;24.30;;
20870;SDS011;10595;51.218;3.452;2023-06-19T04:09:43;38.87;;;23.83;;
20870;SDS011;10595;51.218;3.452;2023-06-19T04:12:09;36.60;;;24.80;;
20870;SDS011;10595;51.218;3.452;2023-06-19T04:14:35;38.20;;;24.63;;
20870;SDS011;10595;51.218;3.452;2023-06-19T04:17:01;43.80;;;25.13;;
20870;SDS011;10595;51.218;3.452;2023-06-19T04:19:27;41.93;;;25.43;;
20870;SDS011;10595;51.218;3.452;2023-06-19T04:21:53;38.70;;;24.83;;
20870;SDS011;10595;51.218;3.452;2023-06-19T04:24:19;39.47;;;24.80;;
20870;SDS011;10595;51.218;3.452;2023-06-19T04:26:45;38.30;;;24.87;;
20870;SDS011;10595;51.218;3.452;2023-06-19T04:29:11;42.60;;;25.13;;
20870;SDS011;10595;51.218;3.452;2023-06-19T04:31:42;40.27;;;23.93;;
20870;SDS011;10595;51.218;3.452;2023-06-19T04:34:08;36.87;;;23.43;;
20870;SDS011;10595;51.218;3.452;2023-06-19T04:36:34;37.87;;;23.80;;
20870;SDS011;10595;51.218;3.452;2023-06-19T04:39:00;36.27;;;23.37;;
20870;SDS011;10595;51.218;3.452;2023-06-19T04:41:26;38.40;;;24.00;;
20870;SDS011;10595;51.218;3.452;2023-06-19T04:43:52;40.40;;;23.10;;
20870;SDS011;10595;51.218;3.452;2023-06-19T04:46:18;38.27;;;24.10;;
20870;SDS011;10595;51.218;3.452;2023-06-19T04:48:45;38.13;;;23.43;;
20870;SDS011;10595;51.218;3.452;2023-06-19T04:51:15;34.73;;;22.80;;
20870;SDS011;10595;51.218;3.452;2023-06-19T04:53:45;37.47;;;23.27;;
20870;SDS011;10595;51.218;3.452;2023-06-19T04:56:11;38.67;;;22.60;;
20870;SDS011;10595;51.218;3.452;2023-06-19T04:58:37;40.70;;;23.83;;
20870;SDS011;10595;51.218;3.452;2023-06-19T05:01:13;34.60;;;23.00;;
20870;SDS011;10595;51.218;3.452;2023-06-19T05:03:40;33.77;;;22.53;;
20870;SDS011;10595;51.218;3.452;2023-06-19T05:06:06;35.87;;;22.00;;
20870;SDS011;10595;51.218;3.452;2023-06-19T05:08:32;35.00;;;22.33;;
20870;SDS011;10595;51.218;3.452;2023-06-19T05:10:58;36.63;;;22.60;;
20870;SDS011;10595;51.218;3.452;2023-06-19T05:13:24;36.33;;;22.20;;
20870;SDS011;10595;51.218;3.452;2023-06-19T05:15:50;33.63;;;21.87;;
20870;SDS011;10595;51.218;3.452;2023-06-19T05:18:17;31.60;;;21.37;;
20870;SDS011;10595;51.218;3.452;2023-06-19T05:20:43;32.00;;;21.07;;
20870;SDS011;10595;51.218;3.452;2023-06-19T05:23:09;34.53;;;22.10;;
20870;SDS011;10595;51.218;3.452;2023-06-19T05:25:35;36.60;;;23.37;;
20870;SDS011;10595;51.218;3.452;2023-06-19T05:28:01;34.33;;;21.73;;
20870;SDS011;10595;51.218;3.452;2023-06-19T05:30:27;36.87;;;22.37;;
20870;SDS011;10595;51.218;3.452;2023-06-19T05:32:53;35.70;;;22.20;;
20870;SDS011;10595;51.218;3.452;2023-06-19T05:35:19;35.43;;;20.90;;
20870;SDS011;10595;51.218;3.452;2023-06-19T05:37:45;36.80;;;21.60;;
20870;SDS011;10595;51.218;3.452;2023-06-19T05:40:11;31.43;;;20.03;;
20870;SDS011;10595;51.218;3.452;2023-06-19T05:42:37;38.17;;;21.30;;
20870;SDS011;10595;51.218;3.452;2023-06-19T05:45:03;33.90;;;20.33;;
20870;SDS011;10595;51.218;3.452;2023-06-19T05:47:30;32.77;;;21.37;;
20870;SDS011;10595;51.218;3.452;2023-06-19T05:49:59;31.33;;;19.93;;
20870;SDS011;10595;51.218;3.452;2023-06-19T05:52:25;32.73;;;20.20;;
20870;SDS011;10595;51.218;3.452;2023-06-19T05:54:51;31.40;;;20.50;;
20870;SDS011;10595;51.218;3.452;2023-06-19T05:57:18;32.07;;;19.07;;
20870;SDS011;10595;51.218;3.452;2023-06-19T05:59:47;29.20;;;19.80;;
20870;SDS011;10595;51.218;3.452;2023-06-19T06:02:13;29.60;;;19.37;;
20870;SDS011;10595;51.218;3.452;2023-06-19T06:04:40;31.03;;;19.20;;
20870;SDS011;10595;51.218;3.452;2023-06-19T06:07:07;28.63;;;18.97;;
20870;SDS011;10595;51.218;3.452;2023-06-19T06:09:33;31.50;;;20.10;;
20870;SDS011;10595;51.218;3.452;2023-06-19T06:11:59;31.10;;;18.83;;
20870;SDS011;10595;51.218;3.452;2023-06-19T06:14:25;30.53;;;18.33;;
20870;SDS011;10595;51.218;3.452;2023-06-19T06:16:52;30.73;;;17.97;;
20870;SDS011;10595;51.218;3.452;2023-06-19T06:19:21;28.17;;;17.50;;
20870;SDS011;10595;51.218;3.452;2023-06-19T06:21:51;26.43;;;17.10;;
20870;SDS011;10595;51.218;3.452;2023-06-19T06:24:17;30.47;;;17.70;;
20870;SDS011;10595;51.218;3.452;2023-06-19T06:26:43;28.63;;;17.27;;
20870;SDS011;10595;51.218;3.452;2023-06-19T06:29:09;28.83;;;16.77;;
20870;SDS011;10595;51.218;3.452;2023-06-19T06:31:37;26.40;;;16.53;;
20870;SDS011;10595;51.218;3.452;2023-06-19T06:34:06;28.83;;;16.90;;
20870;SDS011;10595;51.218;3.452;2023-06-19T06:36:32;25.60;;;15.93;;
20870;SDS011;10595;51.218;3.452;2023-06-19T06:38:58;26.53;;;16.73;;
20870;SDS011;10595;51.218;3.452;2023-06-19T06:41:24;25.30;;;16.20;;
20870;SDS011;10595;51.218;3.452;2023-06-19T06:43:50;26.30;;;16.20;;
20870;SDS011;10595;51.218;3.452;2023-06-19T06:46:16;26.30;;;16.23;;
20870;SDS011;10595;51.218;3.452;2023-06-19T06:48:42;24.70;;;15.27;;
20870;SDS011;10595;51.218;3.452;2023-06-19T06:51:08;24.87;;;16.73;;
20870;SDS011;10595;51.218;3.452;2023-06-19T06:53:35;25.13;;;16.27;;
20870;SDS011;10595;51.218;3.452;2023-06-19T06:56:01;23.40;;;15.47;;
20870;SDS011;10595;51.218;3.452;2023-06-19T06:58:28;24.47;;;16.13;;
20870;SDS011;10595;51.218;3.452;2023-06-19T07:00:55;25.40;;;14.57;;
20870;SDS011;10595;51.218;3.452;2023-06-19T07:03:21;23.40;;;15.57;;
20870;SDS011;10595;51.218;3.452;2023-06-19T07:05:47;24.80;;;16.73;;
20870;SDS011;10595;51.218;3.452;2023-06-19T07:08:13;24.00;;;16.07;;
20870;SDS011;10595;51.218;3.452;2023-06-19T07:10:39;19.87;;;14.43;;
20870;SDS011;10595;51.218;3.452;2023-06-19T07:13:05;23.13;;;15.60;;
20870;SDS011;10595;51.218;3.452;2023-06-19T07:15:32;23.40;;;15.47;;
20870;SDS011;10595;51.218;3.452;2023-06-19T07:17:58;22.93;;;15.53;;
20870;SDS011;10595;51.218;3.452;2023-06-19T07:20:24;20.37;;;13.97;;
20870;SDS011;10595;51.218;3.452;2023-06-19T07:22:50;21.33;;;15.23;;
20870;SDS011;10595;51.218;3.452;2023-06-19T07:25:16;22.23;;;13.43;;
20870;SDS011;10595;51.218;3.452;2023-06-19T07:27:43;23.00;;;13.30;;
20870;SDS011;10595;51.218;3.452;2023-06-19T07:30:09;19.33;;;13.50;;
20870;SDS011;10595;51.218;3.452;2023-06-19T07:32:36;19.97;;;13.97;;
20870;SDS011;10595;51.218;3.452;2023-06-19T07:35:02;20.13;;;13.50;;
20870;SDS011;10595;51.218;3.452;2023-06-19T07:37:28;21.83;;;14.17;;
20870;SDS011;10595;51.218;3.452;2023-06-19T07:39:54;20.23;;;13.23;;
20870;SDS011;10595;51.218;3.452;2023-06-19T07:42:21;22.17;;;13.03;;
20870;SDS011;10595;51.218;3.452;2023-06-19T07:44:47;20.00;;;14.43;;
20870;SDS011;10595;51.218;3.452;2023-06-19T07:47:15;24.93;;;14.70;;
20870;SDS011;10595;51.218;3.452;2023-06-19T07:49:41;22.07;;;14.90;;
20870;SDS011;10595;51.218;3.452;2023-06-19T07:52:07;20.07;;;14.73;;
20870;SDS011;10595;51.218;3.452;2023-06-19T07:54:36;18.00;;;14.07;;
20870;SDS011;10595;51.218;3.452;2023-06-19T07:57:02;18.87;;;13.50;;
20870;SDS011;10595;51.218;3.452;2023-06-19T07:59:28;20.83;;;14.27;;
20870;SDS011;10595;51.218;3.452;2023-06-19T08:01:54;21.20;;;13.73;;
20870;SDS011;10595;51.218;3.452;2023-06-19T08:04:20;19.93;;;13.20;;
20870;SDS011;10595;51.218;3.452;2023-06-19T08:06:46;21.63;;;13.53;;
20870;SDS011;10595;51.218;3.452;2023-06-19T08:09:12;21.70;;;14.07;;
20870;SDS011;10595;51.218;3.452;2023-06-19T08:11:38;17.80;;;12.30;;
20870;SDS011;10595;51.218;3.452;2023-06-19T08:14:04;19.43;;;13.00;;
20870;SDS011;10595;51.218;3.452;2023-06-19T08:16:30;16.70;;;12.00;;
20870;SDS011;10595;51.218;3.452;2023-06-19T08:18:56;18.60;;;12.23;;
20870;SDS011;10595;51.218;3.452;2023-06-19T08:21:22;20.77;;;12.87;;
20870;SDS011;10595;51.218;3.452;2023-06-19T08:23:49;18.50;;;12.50;;
20870;SDS011;10595;51.218;3.452;2023-06-19T08:26:15;20.03;;;13.30;;
20870;SDS011;10595;51.218;3.452;2023-06-19T08:28:42;19.43;;;12.43;;
20870;SDS011;10595;51.218;3.452;2023-06-19T08:31:09;19.10;;;12.60;;
20870;SDS011;10595;51.218;3.452;2023-06-19T08:33:35;18.70;;;12.20;;
20870;SDS011;10595;51.218;3.452;2023-06-19T08:36:02;22.27;;;12.60;;
20870;SDS011;10595;51.218;3.452;2023-06-19T08:38:28;17.13;;;11.87;;
20870;SDS011;10595;51.218;3.452;2023-06-19T08:40:54;21.03;;;12.67;;
20870;SDS011;10595;51.218;3.452;2023-06-19T08:43:21;21.33;;;12.10;;
20870;SDS011;10595;51.218;3.452;2023-06-19T08:46:10;17.97;;;11.93;;
20870;SDS011;10595;51.218;3.452;2023-06-19T08:48:37;14.97;;;11.43;;
20870;SDS011;10595;51.218;3.452;2023-06-19T08:51:03;18.47;;;11.43;;
20870;SDS011;10595;51.218;3.452;2023-06-19T08:53:33;18.73;;;13.37;;
20870;SDS011;10595;51.218;3.452;2023-06-19T08:55:59;18.83;;;13.20;;
20870;SDS011;10595;51.218;3.452;2023-06-19T08:58:25;19.03;;;13.03;;
20870;SDS011;10595;51.218;3.452;2023-06-19T09:00:51;20.47;;;13.73;;
20870;SDS011;10595;51.218;3.452;2023-06-19T09:03:20;19.67;;;13.88;;
20870;SDS011;10595;51.218;3.452;2023-06-19T09:05:47;16.50;;;13.20;;
20870;SDS011;10595;51.218;3.452;2023-06-19T09:08:16;16.88;;;12.80;;
20870;SDS011;10595;51.218;3.452;2023-06-19T09:10:43;19.23;;;12.98;;
20870;SDS011;10595;51.218;3.452;2023-06-19T09:13:09;16.05;;;12.48;;
20870;SDS011;10595;51.218;3.452;2023-06-19T09:15:36;18.42;;;12.32;;
20870;SDS011;10595;51.218;3.452;2023-06-19T09:18:09;15.30;;;11.43;;
20870;SDS011;10595;51.218;3.452;2023-06-19T09:20:39;16.83;;;12.35;;
20870;SDS011;10595;51.218;3.452;2023-06-19T09:23:10;18.05;;;13.80;;
20870;SDS011;10595;51.218;3.452;2023-06-19T09:33:26;23.55;;;15.90;;
20870;SDS011;10595;51.218;3.452;2023-06-19T09:35:52;23.98;;;15.43;;
20870;SDS011;10595;51.218;3.452;2023-06-19T09:38:19;22.00;;;14.88;;
20870;SDS011;10595;51.218;3.452;2023-06-19T09:40:47;22.38;;;15.45;;
20870;SDS011;10595;51.218;3.452;2023-06-19T09:43:15;20.63;;;13.77;;
20870;SDS011;10595;51.218;3.452;2023-06-19T09:45:46;19.10;;;14.75;;
20870;SDS011;10595;51.218;3.452;2023-06-19T09:48:15;19.77;;;14.00;;
20870;SDS011;10595;51.218;3.452;2023-06-19T09:50:43;16.08;;;12.30;;
20870;SDS011;10595;51.218;3.452;2023-06-19T09:53:10;18.67;;;12.00;;
20870;SDS011;10595;51.218;3.452;2023-06-19T09:55:36;16.48;;;11.90;;
20870;SDS011;10595;51.218;3.452;2023-06-19T09:58:02;19.23;;;12.98;;
20870;SDS011;10595;51.218;3.452;2023-06-19T10:00:30;15.68;;;11.40;;
20870;SDS011;10595;51.218;3.452;2023-06-19T10:02:57;16.35;;;11.98;;
20870;SDS011;10595;51.218;3.452;2023-06-19T10:05:31;17.85;;;11.95;;
20870;SDS011;10595;51.218;3.452;2023-06-19T10:07:57;18.13;;;12.15;;
20870;SDS011;10595;51.218;3.452;2023-06-19T10:10:25;18.35;;;12.82;;
20870;SDS011;10595;51.218;3.452;2023-06-19T10:13:15;17.85;;;11.80;;
20870;SDS011;10595;51.218;3.452;2023-06-19T10:15:43;20.00;;;11.90;;
20870;SDS011;10595;51.218;3.452;2023-06-19T10:18:16;16.02;;;10.50;;
20870;SDS011;10595;51.218;3.452;2023-06-19T10:20:43;15.73;;;10.40;;
20870;SDS011;10595;51.218;3.452;2023-06-19T10:23:13;14.25;;;10.88;;
20870;SDS011;10595;51.218;3.452;2023-06-19T10:25:46;13.82;;;10.88;;
20870;SDS011;10595;51.218;3.452;2023-06-19T10:28:19;13.88;;;11.18;;
20870;SDS011;10595;51.218;3.452;2023-06-19T10:31:07;15.00;;;11.38;;
20870;SDS011;10595;51.218;3.452;2023-06-19T10:33:34;19.60;;;13.88;;
20870;SDS011;10595;51.218;3.452;2023-06-19T10:36:12;16.95;;;11.60;;
20870;SDS011;10595;51.218;3.452;2023-06-19T10:38:39;15.55;;;10.73;;
20870;SDS011;10595;51.218;3.452;2023-06-19T10:41:04;16.08;;;10.85;;
20870;SDS011;10595;51.218;3.452;2023-06-19T10:43:31;18.52;;;11.50;;
20870;SDS011;10595;51.218;3.452;2023-06-19T10:45:57;15.68;;;11.45;;
20870;SDS011;10595;51.218;3.452;2023-06-19T10:48:24;17.48;;;11.55;;
20870;SDS011;10595;51.218;3.452;2023-06-19T10:50:50;13.55;;;9.30;;
20870;SDS011;10595;51.218;3.452;2023-06-19T10:53:26;17.40;;;10.90;;
20870;SDS011;10595;51.218;3.452;2023-06-19T10:55:56;14.95;;;10.90;;
20870;SDS011;10595;51.218;3.452;2023-06-19T10:58:22;20.33;;;12.10;;
20870;SDS011;10595;51.218;3.452;2023-06-19T11:00:48;15.95;;;12.38;;
20870;SDS011;10595;51.218;3.452;2023-06-19T11:03:14;17.52;;;10.95;;
20870;SDS011;10595;51.218;3.452;2023-06-19T11:05:43;11.98;;;9.38;;
20870;SDS011;10595;51.218;3.452;2023-06-19T11:08:09;15.57;;;10.63;;
20870;SDS011;10595;51.218;3.452;2023-06-19T11:10:35;11.95;;;9.32;;
20870;SDS011;10595;51.218;3.452;2023-06-19T11:13:01;14.80;;;9.65;;
20870;SDS011;10595;51.218;3.452;2023-06-19T11:15:31;11.45;;;9.43;;
20870;SDS011;10595;51.218;3.452;2023-06-19T11:17:58;15.10;;;9.90;;
20870;SDS011;10595;51.218;3.452;2023-06-19T11:20:24;13.82;;;9.98;;
20870;SDS011;10595;51.218;3.452;2023-06-19T11:22:54;14.32;;;9.57;;
20870;SDS011;10595;51.218;3.452;2023-06-19T11:25:21;15.18;;;10.00;;
20870;SDS011;10595;51.218;3.452;2023-06-19T11:27:47;12.32;;;8.90;;
20870;SDS011;10595;51.218;3.452;2023-06-19T11:30:17;16.20;;;11.15;;
20870;SDS011;10595;51.218;3.452;2023-06-19T11:32:43;9.77;;;8.00;;
20870;SDS011;10595;51.218;3.452;2023-06-19T11:35:16;10.90;;;8.45;;
20870;SDS011;10595;51.218;3.452;2023-06-19T11:37:42;13.45;;;10.52;;
20870;SDS011;10595;51.218;3.452;2023-06-19T11:40:09;14.05;;;10.35;;
20870;SDS011;10595;51.218;3.452;2023-06-19T11:42:51;12.48;;;9.60;;
20870;SDS011;10595;51.218;3.452;2023-06-19T11:45:17;11.25;;;8.38;;
20870;SDS011;10595;51.218;3.452;2023-06-19T11:47:46;15.85;;;10.35;;
20870;SDS011;10595;51.218;3.452;2023-06-19T11:50:13;14.57;;;11.27;;
20870;SDS011;10595;51.218;3.452;2023-06-19T11:52:41;11.50;;;8.75;;
20870;SDS011;10595;51.218;3.452;2023-06-19T11:55:08;14.13;;;9.65;;
20870;SDS011;10595;51.218;3.452;2023-06-19T11:57:34;12.93;;;11.10;;
20870;SDS011;10595;51.218;3.452;2023-06-19T12:00:00;13.25;;;10.63;;
20870;SDS011;10595;51.218;3.452;2023-06-19T12:02:26;17.77;;;11.70;;
20870;SDS011;10595;51.218;3.452;2023-06-19T12:04:52;13.25;;;10.20;;
20870;SDS011;10595;51.218;3.452;2023-06-19T12:07:18;15.10;;;13.30;;
20870;SDS011;10595;51.218;3.452;2023-06-19T12:09:45;14.20;;;11.25;;
20870;SDS011;10595;51.218;3.452;2023-06-19T12:12:10;17.90;;;13.85;;
20870;SDS011;10595;51.218;3.452;2023-06-19T12:14:36;14.15;;;11.75;;
20870;SDS011;10595;51.218;3.452;2023-06-19T12:17:04;15.30;;;10.95;;
20870;SDS011;10595;51.218;3.452;2023-06-19T12:19:30;16.23;;;14.40;;
20870;SDS011;10595;51.218;3.452;2023-06-19T12:21:56;15.05;;;13.15;;
20870;SDS011;10595;51.218;3.452;2023-06-19T12:24:24;15.90;;;11.57;;
20870;SDS011;10595;51.218;3.452;2023-06-19T12:26:50;15.30;;;10.88;;
20870;SDS011;10595;51.218;3.452;2023-06-19T12:29:16;14.50;;;10.40;;
20870;SDS011;10595;51.218;3.452;2023-06-19T12:31:43;13.25;;;10.65;;
20870;SDS011;10595;51.218;3.452;2023-06-19T12:34:09;12.95;;;11.48;;
20870;SDS011;10595;51.218;3.452;2023-06-19T12:36:35;13.77;;;10.90;;
20870;SDS011;10595;51.218;3.452;2023-06-19T12:39:01;14.43;;;12.52;;
20870;SDS011;10595;51.218;3.452;2023-06-19T12:41:31;14.75;;;11.23;;
20870;SDS011;10595;51.218;3.452;2023-06-19T12:43:57;12.68;;;11.43;;
20870;SDS011;10595;51.218;3.452;2023-06-19T12:46:23;13.48;;;12.07;;
20870;SDS011;10595;51.218;3.452;2023-06-19T12:48:49;13.98;;;10.05;;
20870;SDS011;10595;51.218;3.452;2023-06-19T12:51:16;11.90;;;8.82;;
20870;SDS011;10595;51.218;3.452;2023-06-19T12:53:43;10.07;;;9.00;;
20870;SDS011;10595;51.218;3.452;2023-06-19T12:56:09;10.23;;;9.00;;
20870;SDS011;10595;51.218;3.452;2023-06-19T12:58:35;10.10;;;9.05;;
20870;SDS011;10595;51.218;3.452;2023-06-19T13:01:01;10.10;;;8.23;;
20870;SDS011;10595;51.218;3.452;2023-06-19T13:03:27;10.75;;;9.35;;
20870;SDS011;10595;51.218;3.452;2023-06-19T13:05:53;10.77;;;8.85;;
20870;SDS011;10595;51.218;3.452;2023-06-19T13:08:19;8.73;;;7.90;;
20870;SDS011;10595;51.218;3.452;2023-06-19T13:10:45;9.23;;;8.32;;
20870;SDS011;10595;51.218;3.452;2023-06-19T13:13:11;9.48;;;7.93;;
20870;SDS011;10595;51.218;3.452;2023-06-19T13:15:37;10.20;;;8.90;;
20870;SDS011;10595;51.218;3.452;2023-06-19T13:18:03;9.85;;;8.90;;
20870;SDS011;10595;51.218;3.452;2023-06-19T13:20:29;10.00;;;8.02;;
20870;SDS011;10595;51.218;3.452;2023-06-19T13:22:56;10.05;;;7.70;;
20870;SDS011;10595;51.218;3.452;2023-06-19T13:25:22;7.65;;;6.93;;
20870;SDS011;10595;51.218;3.452;2023-06-19T13:27:48;9.77;;;6.60;;
20870;SDS011;10595;51.218;3.452;2023-06-19T13:30:14;8.85;;;6.65;;
20870;SDS011;10595;51.218;3.452;2023-06-19T13:32:41;7.45;;;5.95;;
20870;SDS011;10595;51.218;3.452;2023-06-19T13:35:07;7.22;;;6.32;;
20870;SDS011;10595;51.218;3.452;2023-06-19T13:37:34;7.35;;;5.68;;
20870;SDS011;10595;51.218;3.452;2023-06-19T13:40:00;6.57;;;5.40;;
20870;SDS011;10595;51.218;3.452;2023-06-19T13:42:29;29.00;;;8.18;;
20870;SDS011;10595;51.218;3.452;2023-06-19T13:44:55;7.68;;;5.70;;
20870;SDS011;10595;51.218;3.452;2023-06-19T13:47:21;5.05;;;4.55;;
20870;SDS011;10595;51.218;3.452;2023-06-19T13:49:50;7.10;;;5.07;;
20870;SDS011;10595;51.218;3.452;2023-06-19T13:52:16;8.88;;;5.70;;
20870;SDS011;10595;51.218;3.452;2023-06-19T13:54:42;6.53;;;5.05;;
20870;SDS011;10595;51.218;3.452;2023-06-19T13:57:08;6.35;;;4.80;;
20870;SDS011;10595;51.218;3.452;2023-06-19T13:59:34;7.38;;;5.15;;
20870;SDS011;10595;51.218;3.452;2023-06-19T14:02:00;6.07;;;4.78;;
20870;SDS011;10595;51.218;3.452;2023-06-19T14:04:26;6.05;;;4.70;;
20870;SDS011;10595;51.218;3.452;2023-06-19T14:06:52;9.32;;;5.85;;
20870;SDS011;10595;51.218;3.452;2023-06-19T14:09:19;7.93;;;5.05;;
20870;SDS011;10595;51.218;3.452;2023-06-19T14:11:45;9.15;;;5.07;;
20870;SDS011;10595;51.218;3.452;2023-06-19T14:14:11;8.02;;;6.13;;
20870;SDS011;10595;51.218;3.452;2023-06-19T14:16:37;8.63;;;5.78;;
20870;SDS011;10595;51.218;3.452;2023-06-19T14:19:03;5.43;;;4.93;;
20870;SDS011;10595;51.218;3.452;2023-06-19T14:21:29;5.57;;;5.07;;
20870;SDS011;10595;51.218;3.452;2023-06-19T14:23:55;11.18;;;6.85;;
20870;SDS011;10595;51.218;3.452;2023-06-19T14:26:21;7.18;;;5.75;;
20870;SDS011;10595;51.218;3.452;2023-06-19T14:28:47;7.72;;;5.72;;
20870;SDS011;10595;51.218;3.452;2023-06-19T14:31:14;7.82;;;5.55;;
20870;SDS011;10595;51.218;3.452;2023-06-19T14:33:40;7.50;;;5.53;;
20870;SDS011;10595;51.218;3.452;2023-06-19T14:36:06;7.97;;;6.18;;
20870;SDS011;10595;51.218;3.452;2023-06-19T14:38:33;11.23;;;8.00;;
20870;SDS011;10595;51.218;3.452;2023-06-19T14:40:59;10.98;;;8.73;;